aviador You're here:

KS32 Decoded Metar

in
Report Time2018-02-22 06:35:00
UTC Time2018-02-22 06:44:23
Flight Rules vfr VFR
Wind180° at 10 kt
W.Rank180° ranks 9
Current wind is below 180° avg. (10.8)
Visibility9999 m
Phenomena:N/A
Clouds:N/A
Expected CloudBase > 800 ft AGL from Temp-Dew spread
CeilingNone
Temp-20°C
Dew Point-22°C (84% RH)
AAT-27.3°C
QNH1031 hPa
Raw Report
METAR KS32 220635Z AUTO 18010KT 10SM CLR M20/M22 A3046 RMK AO2=

Extra information for KS32:More info

Social comments